Time;durP1;ratioP1;P1;durP2;ratioP2;P2;SDS_P1;SDS_P2;PMS_P1;PMS_P2;Temp;Humidity;BMP_temperature;BMP_pressure;BME280_temperature;BME280_humidity;BME280_pressure;Samples;Min_cycle;Max_cycle;Signal;HPM_P1;HPM_P2
2022/05/31 00:01:18;;;;;;;;;;;9.70;99.90;;;;;;5086207;28;19924;-81
2022/05/31 00:03:43;;;;;;;;;;;9.70;99.90;;;;;;5070370;28;19927;-82
2022/05/31 00:06:09;;;;;;;;;;;9.70;99.90;;;;;;5070342;28;20026;-82
2022/05/31 00:08:34;;;;;;;;;;;9.70;99.90;;;;;;5086045;28;19920;-81
2022/05/31 00:11:00;;;;;;;;;;;9.70;99.90;;;;;;5052264;28;19920;-82
2022/05/31 00:13:29;;;;;;;;;;;9.70;99.90;;;;;;5052825;28;19928;-81
2022/05/31 00:15:54;;;;;;;;;;;9.70;99.90;;;;;;5052200;28;19968;-81
2022/05/31 00:18:20;;;;;;;;;;;9.70;99.90;;;;;;5065055;28;19970;-82
2022/05/31 00:20:45;;;;;;;;;;;9.70;99.90;;;;;;5050300;28;19920;-82
2022/05/31 00:23:11;;;;;;;;;;;9.70;99.90;;;;;;5067899;28;20342;-82
2022/05/31 00:25:37;;;;;;;;;;;9.80;99.90;;;;;;5077376;28;19962;-82
2022/05/31 00:28:03;;;;;;;;;;;9.80;99.90;;;;;;5083966;28;20374;-81
2022/05/31 00:30:28;;;;;;;;;;;9.80;99.90;;;;;;5061494;28;20397;-82
2022/05/31 00:32:55;;;;;;;;;;;9.80;99.90;;;;;;5043904;28;19955;-81
2022/05/31 00:35:23;;;;;;;;;;;9.80;99.90;;;;;;5069786;28;20320;-82
2022/05/31 00:37:48;;;;;;;;;;;9.80;99.90;;;;;;5077732;28;19920;-81
2022/05/31 00:40:15;;;;;;;;;;;9.80;99.90;;;;;;5085787;28;19928;-82
2022/05/31 00:42:49;;;;;;;;;;;9.80;99.90;;;;;;5051544;28;19928;-82
2022/05/31 00:45:14;;;;;;;;;;;9.80;99.90;;;;;;5050201;28;19920;-81
2022/05/31 00:47:40;;;;;;;;;;;9.90;99.90;;;;;;5050917;28;20381;-82
2022/05/31 00:50:08;;;;;;;;;;;9.90;99.90;;;;;;5052013;28;19927;-82
2022/05/31 00:52:36;;;;;;;;;;;9.90;99.90;;;;;;5081587;28;19935;-82
2022/05/31 00:55:10;;;;;;;;;;;9.90;99.90;;;;;;5048217;28;20440;-81
2022/05/31 00:57:38;;;;;;;;;;;9.90;99.90;;;;;;5048694;28;20002;-82
2022/05/31 01:00:09;;;;;;;;;;;9.90;99.90;;;;;;5048232;28;19948;-82
2022/05/31 01:02:35;;;;;;;;;;;10.00;99.90;;;;;;5040853;28;20382;-82
2022/05/31 01:05:01;;;;;;;;;;;9.90;99.90;;;;;;5049646;28;19921;-81
2022/05/31 01:07:27;;;;;;;;;;;9.90;99.90;;;;;;5048160;28;19928;-82
2022/05/31 01:09:53;;;;;;;;;;;10.00;99.90;;;;;;5048530;28;20309;-82
2022/05/31 01:12:19;;;;;;;;;;;9.90;99.90;;;;;;5043522;28;19921;-82
2022/05/31 01:14:44;;;;;;;;;;;9.90;99.90;;;;;;5023053;28;19924;-82
2022/05/31 01:17:24;;;;;;;;;;;9.90;99.90;;;;;;5048368;28;20412;-82
2022/05/31 01:19:56;;;;;;;;;;;9.90;99.90;;;;;;5064909;28;19966;-82
2022/05/31 01:22:33;;;;;;;;;;;9.90;99.90;;;;;;5047957;28;19924;-81
2022/05/31 01:25:17;;;;;;;;;;;9.90;99.90;;;;;;5048623;28;20104;-81
2022/05/31 01:27:57;;;;;;;;;;;9.90;99.90;;;;;;5032261;28;20030;-82
2022/05/31 01:30:23;;;;;;;;;;;9.90;99.90;;;;;;5048175;28;20255;-82
2022/05/31 01:32:55;;;;;;;;;;;9.90;99.90;;;;;;5051951;28;19966;-82
2022/05/31 01:35:28;;;;;;;;;;;9.90;99.90;;;;;;5038030;28;19921;-82
2022/05/31 01:38:00;;;;;;;;;;;9.90;99.90;;;;;;5035055;28;19935;-81
2022/05/31 01:40:44;;;;;;;;;;;9.90;99.90;;;;;;5051787;28;19978;-82
2022/05/31 01:43:10;;;;;;;;;;;9.90;99.90;;;;;;5085501;28;19921;-82
2022/05/31 01:45:38;;;;;;;;;;;9.90;99.90;;;;;;5053013;28;19921;-82
2022/05/31 01:48:05;;;;;;;;;;;9.90;99.90;;;;;;5052366;28;20075;-82
2022/05/31 01:50:31;;;;;;;;;;;9.90;99.90;;;;;;5035608;28;19951;-82
2022/05/31 01:52:57;;;;;;;;;;;9.90;99.90;;;;;;5037593;28;19932;-82
2022/05/31 01:55:23;;;;;;;;;;;9.90;99.90;;;;;;5051790;28;20306;-81
2022/05/31 01:57:53;;;;;;;;;;;9.90;99.90;;;;;;5051631;28;19920;-82
2022/05/31 02:00:18;;;;;;;;;;;9.80;99.90;;;;;;5051261;28;20776;-82
2022/05/31 02:02:47;;;;;;;;;;;9.80;99.90;;;;;;5052596;28;20011;-82
2022/05/31 02:05:12;;;;;;;;;;;9.80;99.90;;;;;;5037563;28;19921;-82
2022/05/31 02:07:38;;;;;;;;;;;9.80;99.90;;;;;;5034902;28;20340;-82
2022/05/31 02:10:04;;;;;;;;;;;9.80;99.90;;;;;;5052508;28;19929;-82
2022/05/31 02:12:30;;;;;;;;;;;9.80;99.90;;;;;;5052355;28;20031;-83
2022/05/31 02:14:56;;;;;;;;;;;9.80;99.90;;;;;;5051512;28;20333;-82
2022/05/31 02:17:22;;;;;;;;;;;9.80;99.90;;;;;;5050963;28;19920;-82
2022/05/31 02:19:48;;;;;;;;;;;9.90;99.90;;;;;;5067459;28;19967;-82
2022/05/31 02:22:16;;;;;;;;;;;9.90;99.90;;;;;;5085114;28;19920;-82
2022/05/31 02:24:41;;;;;;;;;;;9.90;99.90;;;;;;5051016;28;20302;-82
2022/05/31 02:27:07;;;;;;;;;;;9.90;99.90;;;;;;5084570;28;19928;-82
2022/05/31 02:29:34;;;;;;;;;;;9.90;99.90;;;;;;5051033;28;19921;-82
2022/05/31 02:32:01;;;;;;;;;;;9.90;99.90;;;;;;5050639;28;19921;-82
2022/05/31 02:34:28;;;;;;;;;;;9.90;99.90;;;;;;5052200;28;19924;-82
2022/05/31 02:36:54;;;;;;;;;;;9.90;99.90;;;;;;5051293;28;19920;-83
2022/05/31 02:39:20;;;;;;;;;;;9.90;99.90;;;;;;5052053;28;19921;-82
2022/05/31 02:41:45;;;;;;;;;;;9.90;99.90;;;;;;5050741;28;19920;-82
2022/05/31 02:44:11;;;;;;;;;;;9.90;99.90;;;;;;5083710;28;20657;-82
2022/05/31 02:46:37;;;;;;;;;;;9.90;99.90;;;;;;5051979;28;20412;-82
2022/05/31 02:49:04;;;;;;;;;;;9.90;99.90;;;;;;5054516;28;19928;-82
2022/05/31 02:51:33;;;;;;;;;;;9.90;99.90;;;;;;5050364;28;19921;-82
2022/05/31 02:53:58;;;;;;;;;;;10.00;99.90;;;;;;5071659;28;19936;-82
2022/05/31 02:56:24;;;;;;;;;;;10.00;99.90;;;;;;5071844;28;19920;-82
2022/05/31 02:58:49;;;;;;;;;;;10.00;99.90;;;;;;5053847;28;20385;-82
2022/05/31 03:01:23;;;;;;;;;;;10.00;99.90;;;;;;5053500;28;19927;-82
2022/05/31 03:03:48;;;;;;;;;;;10.00;99.90;;;;;;5053575;28;19920;-82
2022/05/31 03:06:14;;;;;;;;;;;10.00;99.90;;;;;;5087288;28;19927;-82
2022/05/31 03:08:39;;;;;;;;;;;10.00;99.90;;;;;;5053252;28;19924;-82
2022/05/31 03:11:07;;;;;;;;;;;10.00;99.90;;;;;;5053247;28;19920;-82
2022/05/31 03:13:33;;;;;;;;;;;10.00;99.90;;;;;;5071131;28;19927;-82
2022/05/31 03:16:00;;;;;;;;;;;9.90;99.90;;;;;;5071133;28;19920;-82
2022/05/31 03:18:32;;;;;;;;;;;9.90;99.90;;;;;;5086867;28;20393;-82
2022/05/31 03:20:59;;;;;;;;;;;9.90;99.90;;;;;;5053849;28;19924;-82
2022/05/31 03:23:34;;;;;;;;;;;9.90;99.90;;;;;;5085832;28;19920;-82
2022/05/31 03:26:03;;;;;;;;;;;9.90;99.90;;;;;;5052962;28;19924;-82
2022/05/31 03:28:29;;;;;;;;;;;9.90;99.90;;;;;;5070622;28;19920;-82
2022/05/31 03:30:54;;;;;;;;;;;9.90;99.90;;;;;;5086803;28;19920;-82
2022/05/31 03:33:20;;;;;;;;;;;9.90;99.90;;;;;;5070930;28;20361;-82
2022/05/31 03:35:46;;;;;;;;;;;9.90;99.90;;;;;;5069306;28;20019;-82
2022/05/31 03:38:11;;;;;;;;;;;9.90;99.90;;;;;;5083966;28;19927;-82
2022/05/31 03:43:21;;;;;;;;;;;10.00;99.90;;;;;;5086446;28;19920;-82
2022/05/31 03:45:46;;;;;;;;;;;9.90;99.90;;;;;;5053018;28;19920;-82
2022/05/31 03:48:12;;;;;;;;;;;10.00;99.90;;;;;;5085880;28;19920;-83
2022/05/31 03:50:38;;;;;;;;;;;10.00;99.90;;;;;;5053046;28;20003;-82
2022/05/31 03:53:08;;;;;;;;;;;10.00;99.90;;;;;;5086037;28;20018;-82
2022/05/31 03:55:40;;;;;;;;;;;10.00;99.90;;;;;;5051580;28;19931;-83
2022/05/31 03:58:06;;;;;;;;;;;10.00;99.90;;;;;;5085797;28;19981;-82
2022/05/31 04:00:32;;;;;;;;;;;10.10;99.90;;;;;;5086544;28;20411;-82
2022/05/31 04:02:58;;;;;;;;;;;10.10;99.90;;;;;;5070272;28;19967;-82
2022/05/31 04:05:23;;;;;;;;;;;10.10;99.90;;;;;;5052348;28;20037;-82
2022/05/31 04:07:50;;;;;;;;;;;10.10;99.90;;;;;;5070631;28;20297;-82
2022/05/31 04:10:16;;;;;;;;;;;10.20;99.90;;;;;;5085807;28;19960;-82
2022/05/31 04:12:42;;;;;;;;;;;10.20;99.90;;;;;;5052335;28;19966;-83
2022/05/31 04:15:07;;;;;;;;;;;10.20;99.90;;;;;;5052605;28;20006;-82
2022/05/31 04:17:33;;;;;;;;;;;10.30;99.90;;;;;;5052347;28;20394;-82
2022/05/31 04:19:58;;;;;;;;;;;10.30;99.90;;;;;;5070043;28;19977;-82
2022/05/31 04:22:24;;;;;;;;;;;10.30;99.90;;;;;;5052191;28;19920;-82
2022/05/31 04:24:57;;;;;;;;;;;10.40;99.90;;;;;;5070233;28;19920;-82
2022/05/31 04:27:23;;;;;;;;;;;10.30;99.90;;;;;;5085770;28;20662;-82
2022/05/31 04:29:48;;;;;;;;;;;10.40;99.90;;;;;;5052118;28;19920;-82
2022/05/31 04:32:15;;;;;;;;;;;10.40;99.90;;;;;;5085951;28;19943;-82
2022/05/31 04:34:41;;;;;;;;;;;10.50;99.90;;;;;;5085849;28;19924;-82
2022/05/31 04:37:07;;;;;;;;;;;10.50;99.90;;;;;;5065369;28;19964;-81
2022/05/31 04:39:32;;;;;;;;;;;10.50;99.90;;;;;;5069125;28;20381;-82
2022/05/31 04:41:58;;;;;;;;;;;10.50;99.90;;;;;;5084401;28;19947;-82
2022/05/31 04:44:23;;;;;;;;;;;10.60;99.90;;;;;;5050245;28;19966;-82
2022/05/31 04:46:49;;;;;;;;;;;10.60;99.90;;;;;;5069685;28;19927;-82
2022/05/31 04:49:15;;;;;;;;;;;10.60;99.90;;;;;;5071148;28;19927;-82
2022/05/31 04:51:41;;;;;;;;;;;10.60;99.90;;;;;;5084953;28;19952;-82
2022/05/31 04:54:07;;;;;;;;;;;10.60;99.90;;;;;;5051263;28;19920;-82
2022/05/31 04:56:33;;;;;;;;;;;10.70;99.90;;;;;;5068664;28;19924;-82
2022/05/31 04:58:59;;;;;;;;;;;10.70;99.90;;;;;;5069530;28;20022;-82
2022/05/31 05:01:24;;;;;;;;;;;10.70;99.90;;;;;;5051714;28;20054;-82
2022/05/31 05:03:50;;;;;;;;;;;10.70;99.90;;;;;;5051775;28;19920;-82
2022/05/31 05:06:17;;;;;;;;;;;10.70;99.90;;;;;;5071594;28;19924;-82
2022/05/31 05:08:43;;;;;;;;;;;10.80;99.90;;;;;;5076087;28;20026;-82
2022/05/31 05:11:09;;;;;;;;;;;10.80;99.90;;;;;;5076254;28;20015;-82
2022/05/31 05:13:35;;;;;;;;;;;10.80;99.90;;;;;;5076249;28;20027;-82
2022/05/31 05:16:00;;;;;;;;;;;10.90;99.90;;;;;;5058237;28;20407;-82
2022/05/31 05:18:27;;;;;;;;;;;10.90;99.90;;;;;;5091957;28;19924;-82
2022/05/31 05:20:53;;;;;;;;;;;10.90;99.90;;;;;;5058221;28;20381;-82
2022/05/31 05:23:18;;;;;;;;;;;11.00;99.90;;;;;;5076004;28;19935;-82
2022/05/31 05:25:51;;;;;;;;;;;11.00;99.90;;;;;;5076343;28;19920;-82
2022/05/31 05:31:01;;;;;;;;;;;11.00;99.90;;;;;;5092060;28;19925;-82
2022/05/31 05:33:27;;;;;;;;;;;11.10;99.90;;;;;;5076066;28;19920;-82
2022/05/31 05:35:52;;;;;;;;;;;11.10;99.90;;;;;;5091917;28;19921;-82
2022/05/31 05:38:18;;;;;;;;;;;11.10;99.90;;;;;;5075999;28;19920;-82
2022/05/31 05:40:43;;;;;;;;;;;11.20;99.90;;;;;;5075956;28;19931;-82
2022/05/31 05:43:10;;;;;;;;;;;11.20;99.90;;;;;;5081613;28;20381;-82
2022/05/31 05:45:36;;;;;;;;;;;11.20;99.90;;;;;;5070501;28;19928;-82
2022/05/31 05:48:01;;;;;;;;;;;11.20;99.90;;;;;;5076030;28;19974;-79
2022/05/31 05:50:27;;;;;;;;;;;11.30;99.90;;;;;;5075861;28;19955;-80
2022/05/31 05:53:00;;;;;;;;;;;11.30;99.90;;;;;;5054299;28;19921;-80
2022/05/31 05:55:25;;;;;;;;;;;11.30;99.90;;;;;;5054754;28;19924;-80
2022/05/31 05:57:51;;;;;;;;;;;11.40;99.90;;;;;;5087687;28;19947;-80
2022/05/31 06:00:17;;;;;;;;;;;11.40;99.90;;;;;;5055780;28;19924;-81
2022/05/31 06:02:45;;;;;;;;;;;11.50;99.90;;;;;;5051979;28;19929;-80
2022/05/31 06:05:14;;;;;;;;;;;11.50;99.90;;;;;;5088138;28;19929;-81
2022/05/31 06:07:42;;;;;;;;;;;11.60;99.90;;;;;;5051777;28;19949;-80
2022/05/31 06:10:20;;;;;;;;;;;11.60;99.90;;;;;;5072261;28;19928;-81
2022/05/31 06:12:49;;;;;;;;;;;11.70;99.90;;;;;;5037851;28;19968;-80
2022/05/31 06:15:16;;;;;;;;;;;11.70;99.90;;;;;;5038855;28;19931;-81
2022/05/31 06:17:43;;;;;;;;;;;11.80;99.90;;;;;;5049706;28;19927;-81
2022/05/31 06:20:09;;;;;;;;;;;11.90;99.90;;;;;;5038432;28;19920;-81
2022/05/31 06:22:36;;;;;;;;;;;11.90;99.90;;;;;;5067487;28;19925;-81
2022/05/31 06:25:02;;;;;;;;;;;12.00;99.90;;;;;;5082521;28;19955;-81
2022/05/31 06:27:27;;;;;;;;;;;12.00;99.90;;;;;;5046212;28;19971;-81
2022/05/31 06:29:53;;;;;;;;;;;12.00;99.90;;;;;;5044248;28;20008;-80
2022/05/31 06:32:18;;;;;;;;;;;12.00;99.90;;;;;;5047281;28;19928;-81
2022/05/31 06:34:45;;;;;;;;;;;12.10;99.90;;;;;;5047775;28;20507;-81
2022/05/31 06:37:12;;;;;;;;;;;12.10;99.90;;;;;;5078916;28;20382;-81
2022/05/31 06:39:38;;;;;;;;;;;12.20;99.90;;;;;;5040100;28;19925;-80
2022/05/31 06:42:04;;;;;;;;;;;12.20;99.90;;;;;;5088907;28;19928;-81
2022/05/31 06:44:31;;;;;;;;;;;12.20;99.90;;;;;;5038624;28;19928;-81
2022/05/31 06:46:56;;;;;;;;;;;12.30;99.90;;;;;;5050030;28;19971;-81
2022/05/31 06:49:22;;;;;;;;;;;12.30;99.90;;;;;;5050403;28;19967;-81
2022/05/31 06:57:16;;;;;;;;;;;12.50;99.90;;;;;;5086215;28;19924;-81
2022/05/31 06:59:42;;;;;;;;;;;12.60;99.90;;;;;;5054254;28;20401;-81
2022/05/31 07:02:07;;;;;;;;;;;12.70;99.90;;;;;;5053699;28;19924;-81
2022/05/31 07:04:36;;;;;;;;;;;12.70;99.90;;;;;;5053201;28;19973;-81
2022/05/31 07:07:03;;;;;;;;;;;12.80;99.90;;;;;;5085438;28;19920;-81
2022/05/31 07:09:28;;;;;;;;;;;12.90;99.90;;;;;;5059774;28;19927;-81
2022/05/31 07:11:57;;;;;;;;;;;13.10;99.90;;;;;;5053670;28;20404;-82
2022/05/31 07:14:23;;;;;;;;;;;13.10;99.90;;;;;;5087204;28;20274;-81
2022/05/31 07:16:49;;;;;;;;;;;13.20;99.90;;;;;;5057184;28;19965;-81
2022/05/31 07:19:14;;;;;;;;;;;13.30;99.90;;;;;;5053722;28;19921;-81
2022/05/31 07:21:40;;;;;;;;;;;13.40;99.90;;;;;;5052949;28;20581;-81
2022/05/31 07:24:06;;;;;;;;;;;13.50;99.90;;;;;;5061937;28;19927;-81
2022/05/31 07:26:31;;;;;;;;;;;13.60;99.90;;;;;;5052921;28;19988;-81
2022/05/31 07:28:57;;;;;;;;;;;13.70;99.90;;;;;;5052612;28;20449;-81
2022/05/31 07:31:22;;;;;;;;;;;13.80;99.90;;;;;;5053169;28;19927;-81
2022/05/31 07:33:48;;;;;;;;;;;13.90;99.90;;;;;;5071008;28;19959;-81
2022/05/31 07:36:13;;;;;;;;;;;14.00;99.90;;;;;;5053007;28;19920;-81
2022/05/31 07:38:41;;;;;;;;;;;14.00;99.90;;;;;;5077085;28;19935;-81
2022/05/31 07:41:07;;;;;;;;;;;14.10;99.90;;;;;;5051289;28;19924;-81
2022/05/31 07:43:33;;;;;;;;;;;14.20;99.90;;;;;;5070925;28;19927;-81
2022/05/31 07:45:59;;;;;;;;;;;14.20;99.90;;;;;;5069720;28;19978;-81
2022/05/31 07:48:25;;;;;;;;;;;14.30;99.90;;;;;;5087298;28;19928;-81
2022/05/31 07:50:50;;;;;;;;;;;14.40;99.90;;;;;;5060986;28;19920;-81
2022/05/31 07:53:16;;;;;;;;;;;14.50;99.90;;;;;;5052963;28;19927;-81
2022/05/31 07:55:41;;;;;;;;;;;14.60;99.90;;;;;;5070585;28;20374;-81
2022/05/31 08:00:51;;;;;;;;;;;14.70;99.90;;;;;;5079726;28;20673;-81
2022/05/31 08:03:16;;;;;;;;;;;14.80;99.90;;;;;;5052688;28;20013;-81
2022/05/31 08:05:42;;;;;;;;;;;14.90;99.90;;;;;;5070403;28;19927;-81
2022/05/31 08:08:09;;;;;;;;;;;14.90;99.90;;;;;;5052739;28;19924;-81
2022/05/31 08:10:35;;;;;;;;;;;15.00;99.90;;;;;;5083714;28;19920;-81
2022/05/31 08:13:00;;;;;;;;;;;15.00;99.90;;;;;;5070349;28;19920;-78
2022/05/31 08:15:26;;;;;;;;;;;15.10;99.90;;;;;;5037440;28;19933;-78
2022/05/31 08:17:51;;;;;;;;;;;15.20;99.90;;;;;;5042441;28;20008;-79
2022/05/31 08:20:17;;;;;;;;;;;15.20;99.90;;;;;;5050773;28;19928;-78
2022/05/31 08:22:43;;;;;;;;;;;15.30;99.90;;;;;;5055508;28;20061;-79
2022/05/31 08:25:09;;;;;;;;;;;15.40;99.90;;;;;;5069317;28;20347;-79
2022/05/31 08:27:36;;;;;;;;;;;15.60;99.90;;;;;;5039123;28;19929;-79
2022/05/31 08:30:03;;;;;;;;;;;15.60;99.90;;;;;;5073117;28;19935;-79
2022/05/31 08:32:30;;;;;;;;;;;15.70;99.90;;;;;;5060701;28;19920;-79
2022/05/31 08:34:55;;;;;;;;;;;15.70;99.90;;;;;;5039025;28;20341;-79
2022/05/31 08:37:21;;;;;;;;;;;15.80;99.90;;;;;;5041478;28;20010;-79
2022/05/31 08:39:46;;;;;;;;;;;15.90;99.90;;;;;;5055333;28;19926;-79
2022/05/31 08:42:18;;;;;;;;;;;16.00;99.90;;;;;;5051457;28;20332;-79
2022/05/31 08:44:58;;;;;;;;;;;16.10;99.90;;;;;;5051269;28;19968;-79
2022/05/31 08:47:43;;;;;;;9.07;5.23;;;16.10;99.90;;;;;;5084294;28;20007;-77
2022/05/31 08:53:30;;;;;;;5.80;3.95;;;16.20;99.90;;;;;;5058335;28;20056;-77
2022/05/31 08:58:51;;;;;;;;;;;16.10;99.90;;;;;;5083244;28;19974;-78
2022/05/31 09:01:19;;;;;;;;;;;15.90;99.90;;;;;;5083471;28;20393;-78
2022/05/31 09:03:48;;;;;;;;;;;15.90;99.90;;;;;;5069475;28;19975;-79
2022/05/31 09:06:17;;;;;;;;;;;16.10;99.90;;;;;;5079014;28;19920;-79
2022/05/31 09:08:46;;;;;;;;;;;16.20;99.90;;;;;;5084732;28;19947;-79
2022/05/31 09:11:18;;;;;;;;;;;16.30;99.90;;;;;;5084835;28;19924;-79
2022/05/31 09:13:58;;;;;;;;;;;16.30;99.90;;;;;;5087240;28;19926;-80
2022/05/31 09:16:24;;;;;;;;;;;16.40;99.90;;;;;;5077378;28;19943;-79
2022/05/31 09:18:56;;;;;;;;;;;16.40;99.90;;;;;;5054711;28;19924;-79
2022/05/31 09:21:37;;;;;;;;;;;16.50;99.90;;;;;;5070636;28;19928;-79
2022/05/31 09:24:04;;;;;;;;;;;16.50;99.90;;;;;;5067220;28;19924;-79
2022/05/31 09:26:51;;;;;;;;;;;16.60;99.90;;;;;;5068631;28;20297;-79
2022/05/31 09:29:17;;;;;;;;;;;16.70;99.90;;;;;;5068753;28;20397;-79
2022/05/31 09:31:42;;;;;;;;;;;17.00;99.90;;;;;;5050837;28;19927;-79
2022/05/31 09:34:17;;;;;;;;;;;17.20;99.90;;;;;;5087802;28;19970;-79
2022/05/31 09:36:47;;;;;;;;;;;17.40;99.90;;;;;;5055062;28;19923;-79
2022/05/31 09:39:21;;;;;;;;;;;17.60;99.90;;;;;;5069962;28;19928;-80
2022/05/31 09:42:13;;;;;;;;;;;17.80;99.90;;;;;;5086800;28;19920;-79
2022/05/31 09:44:42;;;;;;;;;;;18.00;99.90;;;;;;5021327;28;20616;-79
2022/05/31 09:47:19;;;;;;;;;;;18.20;99.90;;;;;;5051257;28;20007;-79
2022/05/31 09:49:47;;;;;;;;;;;18.40;99.90;;;;;;5051344;28;20012;-80
2022/05/31 09:52:18;;;;;;;;;;;18.70;99.90;;;;;;5074619;28;19920;-80
2022/05/31 09:57:50;;;;;;;;;;;19.30;99.90;;;;;;5086045;28;19928;-80
2022/05/31 10:00:17;;;;;;;;;;;19.60;98.90;;;;;;5053888;28;19924;-80
2022/05/31 10:02:43;;;;;;;;;;;19.50;98.60;;;;;;5082044;28;19979;-80
2022/05/31 10:05:23;;;;;;;;;;;19.20;98.60;;;;;;5080358;28;19975;-80
2022/05/31 10:07:48;;;;;;;;;;;18.80;99.00;;;;;;5067874;28;19920;-79
2022/05/31 10:10:16;;;;;;;;;;;18.60;99.00;;;;;;5059529;28;19927;-79
2022/05/31 10:13:09;;;;;;;;;;;18.40;99.10;;;;;;5052058;28;20003;-80
2022/05/31 10:15:44;;;;;;;;;;;18.40;99.50;;;;;;5049057;28;20681;-79
2022/05/31 10:18:20;;;;;;;;;;;18.50;99.10;;;;;;5078778;28;20320;-80
2022/05/31 10:20:53;;;;;;;;;;;18.60;98.80;;;;;;5083513;28;19920;-80
2022/05/31 10:23:21;;;;;;;;;;;18.70;98.30;;;;;;5058391;28;19920;-80
2022/05/31 10:25:51;;;;;;;;;;;18.80;98.60;;;;;;5063886;28;19928;-78
2022/05/31 10:28:19;;;;;;;;;;;18.80;98.50;;;;;;5079690;28;19920;-79
2022/05/31 10:30:50;;;;;;;;;;;18.60;98.20;;;;;;5070596;28;20278;-79
2022/05/31 10:33:24;;;;;;;;;;;18.50;98.00;;;;;;5070753;28;19927;-79
2022/05/31 10:36:04;;;;;;;;;;;18.40;98.50;;;;;;5070814;28;20386;-79
2022/05/31 10:38:31;;;;;;;;;;;18.30;99.70;;;;;;5071238;28;19924;-80
2022/05/31 10:40:56;;;;;;;;;;;18.20;98.50;;;;;;5070424;28;19920;-79
2022/05/31 10:43:45;;;;;;;;;;;18.10;98.60;;;;;;5048304;28;19927;-80
2022/05/31 10:46:13;;;;;;;;;;;17.90;98.10;;;;;;5042264;28;19924;-80
2022/05/31 10:48:41;;;;;;;;;;;17.80;98.20;;;;;;5066941;28;19920;-80
2022/05/31 10:51:09;;;;;;;;;;;17.70;98.30;;;;;;5086105;28;19920;-80
2022/05/31 10:53:37;;;;;;;;;;;17.70;98.00;;;;;;5075744;28;19963;-81
2022/05/31 10:56:31;;;;;;;;;;;17.60;98.30;;;;;;5036858;28;19982;-81
2022/05/31 10:59:00;;;;;;;;;;;17.50;98.60;;;;;;5085520;28;20413;-81
2022/05/31 11:01:55;;;;;;;;;;;17.50;98.70;;;;;;5052812;28;19924;-81
2022/05/31 11:04:30;;;;;;;;;;;17.60;98.50;;;;;;5010867;28;20008;-81
2022/05/31 11:07:05;;;;;;;;;;;17.60;98.10;;;;;;5071750;28;20026;-81
2022/05/31 11:12:36;;;;;;;;;;;17.60;98.70;;;;;;5078497;28;19924;-81
2022/05/31 11:15:21;;;;;;;;;;;17.60;98.80;;;;;;5053393;28;19978;-81
2022/05/31 11:17:54;;;;;;;;;;;17.50;98.50;;;;;;5086932;28;19928;-81
2022/05/31 11:20:20;;;;;;;;;;;17.50;99.10;;;;;;5092619;28;19978;-81
2022/05/31 11:22:55;;;;;;;;;;;17.50;98.90;;;;;;5045322;28;19925;-81
2022/05/31 11:25:39;;;;;;;;;;;17.40;98.30;;;;;;5070063;28;19924;-81
2022/05/31 11:28:26;;;;;;;;;;;17.40;99.20;;;;;;5052417;28;19928;-81
2022/05/31 11:31:04;;;;;;;;;;;17.40;99.20;;;;;;5073748;28;20011;-79
2022/05/31 11:33:35;;;;;;;;;;;17.50;98.80;;;;;;5052886;28;19975;-81
2022/05/31 11:36:14;;;;;;;;;;;17.40;98.70;;;;;;5086917;28;20387;-80
2022/05/31 11:38:56;;;;;;;;;;;17.40;98.90;;;;;;5079223;28;19925;-81
2022/05/31 11:41:42;;;;;;;;;;;17.50;98.40;;;;;;5086635;28;20566;-80
2022/05/31 11:44:29;;;;;;;;;;;17.50;98.60;;;;;;5052272;28;20342;-81
2022/05/31 11:46:58;;;;;;;;;;;17.60;98.00;;;;;;5038796;28;19932;-81
2022/05/31 11:49:34;;;;;;;;;;;17.60;98.20;;;;;;5037527;28;19924;-81
2022/05/31 11:52:19;;;;;;;;;;;17.80;98.70;;;;;;5085022;28;19924;-81
2022/05/31 11:58:01;;;;;;;;;;;18.30;97.70;;;;;;5068907;28;19931;-81
2022/05/31 12:00:31;;;;;;;;;;;18.60;97.30;;;;;;5066310;28;19931;-81
2022/05/31 12:03:03;;;;;;;;;;;18.80;96.60;;;;;;5066085;28;19924;-81
2022/05/31 12:05:33;;;;;;;;;;;18.90;95.70;;;;;;5069600;28;19978;-81
2022/05/31 12:08:09;;;;;;;;;;;19.10;95.10;;;;;;5085721;28;20457;-81
2022/05/31 12:10:55;;;;;;;;;;;19.30;95.70;;;;;;5062025;28;19936;-80
2022/05/31 12:13:22;;;;;;;5.10;2.50;;;19.70;95.10;;;;;;5047476;28;19925;-81
2022/05/31 12:15:49;;;;;;;;;;;20.20;93.70;;;;;;5058867;28;20170;-81
2022/05/31 12:18:18;;;;;;;;;;;20.50;92.80;;;;;;5069522;28;20376;-81
2022/05/31 12:20:59;;;;;;;;;;;20.80;92.50;;;;;;5075537;28;19920;-81
2022/05/31 12:23:46;;;;;;;;;;;21.20;91.20;;;;;;5067789;28;19938;-81
2022/05/31 12:26:38;;;;;;;;;;;21.30;89.30;;;;;;5061640;28;20011;-81
2022/05/31 12:29:03;;;;;;;;;;;21.10;87.80;;;;;;5030167;28;19998;-81
2022/05/31 12:31:30;;;;;;;;;;;20.60;88.60;;;;;;5055842;28;19963;-81
2022/05/31 12:34:11;;;;;;;;;;;20.30;89.30;;;;;;5068297;28;20274;-81
2022/05/31 12:36:55;;;;;;;;;;;20.00;89.60;;;;;;5069631;28;19939;-80
2022/05/31 12:39:24;;;;;;;;;;;19.80;88.40;;;;;;5056108;28;19920;-81
2022/05/31 12:41:51;;;;;;;;;;;19.70;89.20;;;;;;5069567;28;20003;-80
2022/05/31 12:44:30;;;;;;;;;;;19.40;87.60;;;;;;5055841;28;19977;-81
2022/05/31 12:47:08;;;;;;;;;;;19.20;87.40;;;;;;5052999;28;19921;-81
2022/05/31 12:49:35;;;;;;;;;;;19.00;89.00;;;;;;5056472;28;20534;-81
2022/05/31 12:54:56;;;;;;;;;;;18.60;90.00;;;;;;5056608;28;20015;-81
2022/05/31 12:57:22;;;;;;;;;;;18.40;88.00;;;;;;5085332;28;19927;-80
2022/05/31 12:59:48;;;;;;;;;;;18.30;90.50;;;;;;5051690;28;19966;-81
2022/05/31 13:02:20;;;;;;;;;;;18.30;90.60;;;;;;5040583;28;20437;-80
2022/05/31 13:04:54;;;;;;;;;;;18.30;88.90;;;;;;5081824;28;19934;-81
2022/05/31 13:07:20;;;;;;;;;;;18.30;90.40;;;;;;5051633;28;19943;-80
2022/05/31 13:09:47;;;;;;;;;;;18.40;90.70;;;;;;5070764;28;19932;-81
2022/05/31 13:21:03;;;;;;;;;;;18.50;89.10;;;;;;5066389;28;20069;-81
2022/05/31 13:23:34;;;;;;;;;;;18.50;85.70;;;;;;5050204;28;19921;-81
2022/05/31 13:26:30;;;;;;;;;;;18.40;87.80;;;;;;5050695;28;20270;-81
2022/05/31 13:29:00;;;;;;;;;;;18.40;87.90;;;;;;5043482;28;19920;-78
2022/05/31 13:31:27;;;;;;;;;;;18.30;84.70;;;;;;5065336;28;20718;-80
2022/05/31 13:34:00;;;;;;;;;;;18.20;84.00;;;;;;5089277;28;19920;-80
2022/05/31 13:36:27;;;;;;;;;;;18.10;85.40;;;;;;5087575;28;19939;-80
2022/05/31 13:38:55;;;;;;;;;;;18.10;85.20;;;;;;5056927;28;20067;-80
2022/05/31 13:41:21;;;;;;;;;;;18.10;85.90;;;;;;5073416;28;19935;-80
2022/05/31 13:44:03;;;;;;;;;;;18.10;82.40;;;;;;5072212;28;19924;-80
2022/05/31 13:46:28;;;;;;;;;;;18.00;82.50;;;;;;5079386;28;20408;-80
2022/05/31 13:49:17;;;;;;;;;;;18.00;81.30;;;;;;5054698;28;19920;-80
2022/05/31 13:51:50;;;;;;;;;;;18.00;83.10;;;;;;5067065;28;20390;-80
2022/05/31 13:54:17;;;;;;;;;;;18.00;82.30;;;;;;5055106;28;19920;-80
2022/05/31 13:56:43;;;;;;;;;;;18.00;83.30;;;;;;5055260;28;19974;-80
2022/05/31 13:59:10;;;;;;;;;;;18.00;82.50;;;;;;5058152;28;19920;-81
2022/05/31 14:01:46;;;;;;;;;;;18.00;83.60;;;;;;5067936;28;19924;-80
2022/05/31 14:04:15;;;;;;;;;;;18.00;84.90;;;;;;5071800;28;19921;-80
2022/05/31 14:06:41;;;;;;;;;;;18.00;85.30;;;;;;5054626;28;19928;-80
2022/05/31 14:09:12;;;;;;;;;;;18.00;84.60;;;;;;5072731;28;20417;-80
2022/05/31 14:11:46;;;;;;;;;;;18.00;82.70;;;;;;5070821;28;19976;-80
2022/05/31 14:14:19;;;;;;;;;;;18.00;83.10;;;;;;5071409;28;19920;-80
2022/05/31 14:16:44;;;;;;;;;;;17.90;84.70;;;;;;5088325;28;20012;-80
2022/05/31 14:19:16;;;;;;;;;;;17.90;83.90;;;;;;5054510;28;20011;-81
2022/05/31 14:21:42;;;;;;;;;;;17.80;84.90;;;;;;5090018;28;19978;-80
2022/05/31 14:24:16;;;;;;;;;;;17.80;84.70;;;;;;5060697;28;19965;-78
2022/05/31 14:26:42;;;;;;;;;;;17.80;86.20;;;;;;5054016;28;19961;-79
2022/05/31 14:29:10;;;;;;;;;;;17.70;87.20;;;;;;5082798;28;19999;-79
2022/05/31 14:31:38;;;;;;;;;;;17.70;86.70;;;;;;5079068;28;19924;-79
2022/05/31 14:34:05;;;;;;;;;;;17.70;88.20;;;;;;5043160;28;19924;-79
2022/05/31 14:36:35;;;;;;;;;;;17.70;88.60;;;;;;5037815;28;19920;-80
2022/05/31 14:39:02;;;;;;;;;;;17.70;88.20;;;;;;5052850;28;20393;-80
2022/05/31 14:41:40;;;;;;;;;;;17.70;88.80;;;;;;5059224;28;19928;-80
2022/05/31 14:44:24;;;;;;;;;;;17.60;87.80;;;;;;5071826;28;19924;-80
2022/05/31 14:46:49;;;;;;;;;;;17.60;90.10;;;;;;5087503;28;19921;-80
2022/05/31 14:49:15;;;;;;;;;;;17.50;91.10;;;;;;5057666;28;19920;-80
2022/05/31 14:51:41;;;;;;;;;;;17.50;91.60;;;;;;5053638;28;19927;-79
2022/05/31 14:54:25;;;;;;;;;;;17.40;91.80;;;;;;5049645;28;20475;-81
2022/05/31 14:56:51;;;;;;;;;;;17.30;92.10;;;;;;5054794;28;19932;-82
2022/05/31 14:59:18;;;;;;;;;;;17.20;92.90;;;;;;5054981;28;19925;-78
2022/05/31 15:01:45;;;;;;;;;;;17.10;92.40;;;;;;5087263;28;19924;-79
2022/05/31 15:04:14;;;;;;;;;;;17.00;92.90;;;;;;5054462;28;20442;-79
2022/05/31 15:06:42;;;;;;;;;;;16.90;93.60;;;;;;5073072;28;19920;-79
2022/05/31 15:09:07;;;;;;;;;;;16.80;93.70;;;;;;5076398;28;19974;-79
2022/05/31 15:19:46;;;;;;;;;;;16.70;94.50;;;;;;5071768;28;20390;-79